sensor_id;sensor_type;location;lat;lon;timestamp;temperature;humidity
18361;SHT31;9308;48.550;9.108;2023-05-20T00:00:49;13.51;70.63
18361;SHT31;9308;48.550;9.108;2023-05-20T00:03:15;13.34;70.82
18361;SHT31;9308;48.550;9.108;2023-05-20T00:05:40;13.54;70.73
18361;SHT31;9308;48.550;9.108;2023-05-20T00:08:06;13.49;70.86
18361;SHT31;9308;48.550;9.108;2023-05-20T00:10:36;13.46;70.32
18361;SHT31;9308;48.550;9.108;2023-05-20T00:13:02;13.52;70.68
18361;SHT31;9308;48.550;9.108;2023-05-20T00:15:28;13.54;70.24
18361;SHT31;9308;48.550;9.108;2023-05-20T00:17:54;13.56;69.78
18361;SHT31;9308;48.550;9.108;2023-05-20T00:20:20;13.59;69.77
18361;SHT31;9308;48.550;9.108;2023-05-20T00:22:45;13.51;70.06
18361;SHT31;9308;48.550;9.108;2023-05-20T00:25:11;13.51;70.04
18361;SHT31;9308;48.550;9.108;2023-05-20T00:27:41;13.58;70.19
18361;SHT31;9308;48.550;9.108;2023-05-20T00:30:07;13.52;70.15
18361;SHT31;9308;48.550;9.108;2023-05-20T00:32:33;13.71;69.68
18361;SHT31;9308;48.550;9.108;2023-05-20T00:35:00;13.66;69.65
18361;SHT31;9308;48.550;9.108;2023-05-20T00:37:26;13.76;69.23
18361;SHT31;9308;48.550;9.108;2023-05-20T00:39:51;13.67;69.26
18361;SHT31;9308;48.550;9.108;2023-05-20T00:44:46;13.79;69.11
18361;SHT31;9308;48.550;9.108;2023-05-20T00:47:12;13.76;69.24
18361;SHT31;9308;48.550;9.108;2023-05-20T00:49:38;13.78;69.24
18361;SHT31;9308;48.550;9.108;2023-05-20T00:52:03;13.75;69.00
18361;SHT31;9308;48.550;9.108;2023-05-20T00:54:29;13.78;68.94
18361;SHT31;9308;48.550;9.108;2023-05-20T00:56:55;13.79;68.82
18361;SHT31;9308;48.550;9.108;2023-05-20T00:59:21;13.75;69.71
18361;SHT31;9308;48.550;9.108;2023-05-20T01:01:47;13.82;69.15
18361;SHT31;9308;48.550;9.108;2023-05-20T01:04:12;13.89;69.04
18361;SHT31;9308;48.550;9.108;2023-05-20T01:06:37;13.76;69.96
18361;SHT31;9308;48.550;9.108;2023-05-20T01:09:03;13.71;69.76
18361;SHT31;9308;48.550;9.108;2023-05-20T01:11:37;13.78;69.44
18361;SHT31;9308;48.550;9.108;2023-05-20T01:14:07;13.79;69.14
18361;SHT31;9308;48.550;9.108;2023-05-20T01:16:34;13.73;69.40
18361;SHT31;9308;48.550;9.108;2023-05-20T01:19:01;13.72;69.46
18361;SHT31;9308;48.550;9.108;2023-05-20T01:21:29;13.54;69.45
18361;SHT31;9308;48.550;9.108;2023-05-20T01:23:55;13.35;70.86
18361;SHT31;9308;48.550;9.108;2023-05-20T01:26:21;13.35;70.41
18361;SHT31;9308;48.550;9.108;2023-05-20T01:28:51;13.54;70.70
18361;SHT31;9308;48.550;9.108;2023-05-20T01:31:22;13.51;70.60
18361;SHT31;9308;48.550;9.108;2023-05-20T01:33:52;13.71;70.36
18361;SHT31;9308;48.550;9.108;2023-05-20T01:36:20;13.65;69.98
18361;SHT31;9308;48.550;9.108;2023-05-20T01:38:46;13.67;69.67
18361;SHT31;9308;48.550;9.108;2023-05-20T01:41:12;13.76;69.50
18361;SHT31;9308;48.550;9.108;2023-05-20T01:43:38;13.78;69.53
18361;SHT31;9308;48.550;9.108;2023-05-20T01:46:05;13.65;70.14
18361;SHT31;9308;48.550;9.108;2023-05-20T01:48:31;13.78;70.25
18361;SHT31;9308;48.550;9.108;2023-05-20T01:50:56;13.85;69.15
18361;SHT31;9308;48.550;9.108;2023-05-20T01:53:21;13.66;69.74
18361;SHT31;9308;48.550;9.108;2023-05-20T01:55:47;13.75;69.68
18361;SHT31;9308;48.550;9.108;2023-05-20T01:58:12;13.82;69.13
18361;SHT31;9308;48.550;9.108;2023-05-20T02:00:38;13.78;69.85
18361;SHT31;9308;48.550;9.108;2023-05-20T02:03:03;13.58;70.51
18361;SHT31;9308;48.550;9.108;2023-05-20T02:05:28;13.63;70.05
18361;SHT31;9308;48.550;9.108;2023-05-20T02:07:55;13.71;70.17
18361;SHT31;9308;48.550;9.108;2023-05-20T02:10:20;13.71;70.53
18361;SHT31;9308;48.550;9.108;2023-05-20T02:12:45;13.59;70.77
18361;SHT31;9308;48.550;9.108;2023-05-20T02:15:12;13.56;70.84
18361;SHT31;9308;48.550;9.108;2023-05-20T02:17:37;13.72;70.08
18361;SHT31;9308;48.550;9.108;2023-05-20T02:20:05;13.46;71.33
18361;SHT31;9308;48.550;9.108;2023-05-20T02:22:32;13.65;70.71
18361;SHT31;9308;48.550;9.108;2023-05-20T02:24:57;13.71;70.45
18361;SHT31;9308;48.550;9.108;2023-05-20T02:27:22;13.59;70.51
18361;SHT31;9308;48.550;9.108;2023-05-20T02:29:48;13.61;70.58
18361;SHT31;9308;48.550;9.108;2023-05-20T02:32:13;13.59;70.54
18361;SHT31;9308;48.550;9.108;2023-05-20T02:34:39;13.67;70.48
18361;SHT31;9308;48.550;9.108;2023-05-20T02:37:04;13.65;70.32
18361;SHT31;9308;48.550;9.108;2023-05-20T02:39:29;13.67;70.42
18361;SHT31;9308;48.550;9.108;2023-05-20T02:41:55;13.48;70.66
18361;SHT31;9308;48.550;9.108;2023-05-20T02:44:21;13.55;70.52
18361;SHT31;9308;48.550;9.108;2023-05-20T02:46:46;13.59;70.19
18361;SHT31;9308;48.550;9.108;2023-05-20T02:49:12;13.61;70.41
18361;SHT31;9308;48.550;9.108;2023-05-20T02:51:38;13.34;71.10
18361;SHT31;9308;48.550;9.108;2023-05-20T02:54:04;13.27;71.57
18361;SHT31;9308;48.550;9.108;2023-05-20T02:56:29;13.13;71.58
18361;SHT31;9308;48.550;9.108;2023-05-20T02:58:56;12.99;72.26
18361;SHT31;9308;48.550;9.108;2023-05-20T03:01:22;13.07;72.04
18361;SHT31;9308;48.550;9.108;2023-05-20T03:03:47;12.99;72.12
18361;SHT31;9308;48.550;9.108;2023-05-20T03:06:13;13.00;72.16
18361;SHT31;9308;48.550;9.108;2023-05-20T03:08:38;12.90;72.38
18361;SHT31;9308;48.550;9.108;2023-05-20T03:11:04;12.90;72.33
18361;SHT31;9308;48.550;9.108;2023-05-20T03:13:29;12.79;72.51
18361;SHT31;9308;48.550;9.108;2023-05-20T03:15:55;12.77;72.63
18361;SHT31;9308;48.550;9.108;2023-05-20T03:18:20;12.99;72.17
18361;SHT31;9308;48.550;9.108;2023-05-20T03:20:46;12.99;72.06
18361;SHT31;9308;48.550;9.108;2023-05-20T03:23:11;13.08;71.84
18361;SHT31;9308;48.550;9.108;2023-05-20T03:25:39;13.03;71.92
18361;SHT31;9308;48.550;9.108;2023-05-20T03:28:05;13.11;71.89
18361;SHT31;9308;48.550;9.108;2023-05-20T03:30:31;13.16;71.89
18361;SHT31;9308;48.550;9.108;2023-05-20T03:32:57;13.08;72.16
18361;SHT31;9308;48.550;9.108;2023-05-20T03:35:22;13.21;72.11
18361;SHT31;9308;48.550;9.108;2023-05-20T03:37:48;13.30;71.93
18361;SHT31;9308;48.550;9.108;2023-05-20T03:40:16;13.25;72.05
18361;SHT31;9308;48.550;9.108;2023-05-20T03:42:41;13.39;71.79
18361;SHT31;9308;48.550;9.108;2023-05-20T03:45:07;13.44;71.67
18361;SHT31;9308;48.550;9.108;2023-05-20T03:47:33;13.59;71.54
18361;SHT31;9308;48.550;9.108;2023-05-20T03:49:58;13.32;71.96
18361;SHT31;9308;48.550;9.108;2023-05-20T03:52:23;13.46;71.80
18361;SHT31;9308;48.550;9.108;2023-05-20T03:54:49;13.44;71.85
18361;SHT31;9308;48.550;9.108;2023-05-20T03:57:14;13.36;72.22
18361;SHT31;9308;48.550;9.108;2023-05-20T03:59:40;13.52;72.02
18361;SHT31;9308;48.550;9.108;2023-05-20T04:02:06;13.65;71.49
18361;SHT31;9308;48.550;9.108;2023-05-20T04:04:31;13.62;71.43
18361;SHT31;9308;48.550;9.108;2023-05-20T04:06:58;13.51;71.74
18361;SHT31;9308;48.550;9.108;2023-05-20T04:09:29;13.49;71.84
18361;SHT31;9308;48.550;9.108;2023-05-20T04:11:54;13.55;71.99
18361;SHT31;9308;48.550;9.108;2023-05-20T04:14:20;13.42;72.29
18361;SHT31;9308;48.550;9.108;2023-05-20T04:16:45;13.36;72.66
18361;SHT31;9308;48.550;9.108;2023-05-20T04:19:11;13.21;73.17
18361;SHT31;9308;48.550;9.108;2023-05-20T04:21:37;13.49;72.06
18361;SHT31;9308;48.550;9.108;2023-05-20T04:24:03;13.07;73.65
18361;SHT31;9308;48.550;9.108;2023-05-20T04:26:29;13.02;73.98
18361;SHT31;9308;48.550;9.108;2023-05-20T04:28:55;13.21;73.63
18361;SHT31;9308;48.550;9.108;2023-05-20T04:31:26;13.35;73.33
18361;SHT31;9308;48.550;9.108;2023-05-20T04:33:54;13.11;73.23
18361;SHT31;9308;48.550;9.108;2023-05-20T04:36:19;13.38;73.14
18361;SHT31;9308;48.550;9.108;2023-05-20T04:38:46;13.36;73.33
18361;SHT31;9308;48.550;9.108;2023-05-20T04:41:12;13.34;73.26
18361;SHT31;9308;48.550;9.108;2023-05-20T04:43:38;13.28;73.51
18361;SHT31;9308;48.550;9.108;2023-05-20T04:46:04;13.36;73.65
18361;SHT31;9308;48.550;9.108;2023-05-20T04:48:33;13.76;72.20
18361;SHT31;9308;48.550;9.108;2023-05-20T04:50:58;13.58;73.03
18361;SHT31;9308;48.550;9.108;2023-05-20T04:53:24;13.75;72.71
18361;SHT31;9308;48.550;9.108;2023-05-20T04:55:53;13.66;72.95
18361;SHT31;9308;48.550;9.108;2023-05-20T04:58:19;13.87;72.36
18361;SHT31;9308;48.550;9.108;2023-05-20T05:00:48;13.96;72.04
18361;SHT31;9308;48.550;9.108;2023-05-20T05:03:14;14.13;71.32
18361;SHT31;9308;48.550;9.108;2023-05-20T05:05:40;13.93;72.19
18361;SHT31;9308;48.550;9.108;2023-05-20T05:08:07;14.07;72.04
18361;SHT31;9308;48.550;9.108;2023-05-20T05:10:33;13.93;72.24
18361;SHT31;9308;48.550;9.108;2023-05-20T05:12:59;14.00;72.50
18361;SHT31;9308;48.550;9.108;2023-05-20T05:15:25;14.24;71.40
18361;SHT31;9308;48.550;9.108;2023-05-20T05:17:51;14.45;70.88
18361;SHT31;9308;48.550;9.108;2023-05-20T05:20:17;14.21;70.98
18361;SHT31;9308;48.550;9.108;2023-05-20T05:22:43;14.09;71.94
18361;SHT31;9308;48.550;9.108;2023-05-20T05:25:09;14.32;71.13
18361;SHT31;9308;48.550;9.108;2023-05-20T05:27:35;14.17;71.82
18361;SHT31;9308;48.550;9.108;2023-05-20T05:30:01;14.16;72.09
18361;SHT31;9308;48.550;9.108;2023-05-20T05:32:27;14.10;72.05
18361;SHT31;9308;48.550;9.108;2023-05-20T05:34:52;14.04;72.67
18361;SHT31;9308;48.550;9.108;2023-05-20T05:37:18;14.03;72.15
18361;SHT31;9308;48.550;9.108;2023-05-20T05:39:43;13.93;73.27
18361;SHT31;9308;48.550;9.108;2023-05-20T05:42:09;14.27;72.29
18361;SHT31;9308;48.550;9.108;2023-05-20T05:44:34;14.38;71.82
18361;SHT31;9308;48.550;9.108;2023-05-20T05:47:00;14.66;71.23
18361;SHT31;9308;48.550;9.108;2023-05-20T05:49:26;14.25;72.41
18361;SHT31;9308;48.550;9.108;2023-05-20T05:51:51;14.58;71.59
18361;SHT31;9308;48.550;9.108;2023-05-20T05:54:16;14.99;70.49
18361;SHT31;9308;48.550;9.108;2023-05-20T05:56:42;14.92;70.43
18361;SHT31;9308;48.550;9.108;2023-05-20T05:59:07;14.58;71.18
18361;SHT31;9308;48.550;9.108;2023-05-20T06:01:33;14.90;70.72
18361;SHT31;9308;48.550;9.108;2023-05-20T06:03:59;15.10;70.30
18361;SHT31;9308;48.550;9.108;2023-05-20T06:06:25;14.59;72.16
18361;SHT31;9308;48.550;9.108;2023-05-20T06:08:50;14.89;71.39
18361;SHT31;9308;48.550;9.108;2023-05-20T06:11:16;15.02;71.09
18361;SHT31;9308;48.550;9.108;2023-05-20T06:13:41;15.37;70.41
18361;SHT31;9308;48.550;9.108;2023-05-20T06:16:06;15.17;69.73
18361;SHT31;9308;48.550;9.108;2023-05-20T06:18:32;15.38;69.76
18361;SHT31;9308;48.550;9.108;2023-05-20T06:20:58;14.93;70.97
18361;SHT31;9308;48.550;9.108;2023-05-20T06:23:24;15.00;70.40
18361;SHT31;9308;48.550;9.108;2023-05-20T06:25:50;14.93;71.00
18361;SHT31;9308;48.550;9.108;2023-05-20T06:28:16;15.32;69.67
18361;SHT31;9308;48.550;9.108;2023-05-20T06:30:41;15.30;69.76
18361;SHT31;9308;48.550;9.108;2023-05-20T06:33:06;15.44;69.52
18361;SHT31;9308;48.550;9.108;2023-05-20T06:35:32;15.52;69.37
18361;SHT31;9308;48.550;9.108;2023-05-20T06:38:00;15.62;69.09
18361;SHT31;9308;48.550;9.108;2023-05-20T06:40:29;15.37;70.32
18361;SHT31;9308;48.550;9.108;2023-05-20T06:42:54;15.34;69.51
18361;SHT31;9308;48.550;9.108;2023-05-20T06:45:20;15.20;71.77
18361;SHT31;9308;48.550;9.108;2023-05-20T06:47:46;15.38;70.03
18361;SHT31;9308;48.550;9.108;2023-05-20T06:50:13;15.59;70.27
18361;SHT31;9308;48.550;9.108;2023-05-20T06:52:39;15.72;69.52
18361;SHT31;9308;48.550;9.108;2023-05-20T06:55:04;15.97;69.48
18361;SHT31;9308;48.550;9.108;2023-05-20T06:57:30;16.03;68.07
18361;SHT31;9308;48.550;9.108;2023-05-20T06:59:55;16.07;68.40
18361;SHT31;9308;48.550;9.108;2023-05-20T07:02:21;15.96;68.55
18361;SHT31;9308;48.550;9.108;2023-05-20T07:04:47;16.12;68.84
18361;SHT31;9308;48.550;9.108;2023-05-20T07:07:12;16.40;68.76
18361;SHT31;9308;48.550;9.108;2023-05-20T07:09:38;16.79;67.02
18361;SHT31;9308;48.550;9.108;2023-05-20T07:12:03;16.89;67.51
18361;SHT31;9308;48.550;9.108;2023-05-20T07:14:29;16.96;66.04
18361;SHT31;9308;48.550;9.108;2023-05-20T07:16:54;16.58;67.32
18361;SHT31;9308;48.550;9.108;2023-05-20T07:19:20;16.75;66.71
18361;SHT31;9308;48.550;9.108;2023-05-20T07:21:45;16.71;66.78
18361;SHT31;9308;48.550;9.108;2023-05-20T07:24:10;17.04;66.21
18361;SHT31;9308;48.550;9.108;2023-05-20T07:26:36;17.48;65.28
18361;SHT31;9308;48.550;9.108;2023-05-20T07:29:02;17.24;65.82
18361;SHT31;9308;48.550;9.108;2023-05-20T07:31:28;17.78;63.60
18361;SHT31;9308;48.550;9.108;2023-05-20T07:33:54;17.61;64.01
18361;SHT31;9308;48.550;9.108;2023-05-20T07:36:19;17.55;63.88
18361;SHT31;9308;48.550;9.108;2023-05-20T07:38:45;17.51;63.87
18361;SHT31;9308;48.550;9.108;2023-05-20T07:41:10;17.51;64.44
18361;SHT31;9308;48.550;9.108;2023-05-20T07:43:36;17.27;65.37
18361;SHT31;9308;48.550;9.108;2023-05-20T07:46:02;17.11;66.01
18361;SHT31;9308;48.550;9.108;2023-05-20T07:48:27;17.40;64.43
18361;SHT31;9308;48.550;9.108;2023-05-20T07:50:53;17.78;64.44
18361;SHT31;9308;48.550;9.108;2023-05-20T07:53:21;16.96;63.61
18361;SHT31;9308;48.550;9.108;2023-05-20T07:55:47;17.03;64.31
18361;SHT31;9308;48.550;9.108;2023-05-20T07:58:12;17.32;62.33
18361;SHT31;9308;48.550;9.108;2023-05-20T08:00:38;17.58;62.81
18361;SHT31;9308;48.550;9.108;2023-05-20T08:03:03;17.23;64.40
18361;SHT31;9308;48.550;9.108;2023-05-20T08:05:28;17.99;61.93
18361;SHT31;9308;48.550;9.108;2023-05-20T08:07:54;17.97;61.32
18361;SHT31;9308;48.550;9.108;2023-05-20T08:10:19;18.13;62.12
18361;SHT31;9308;48.550;9.108;2023-05-20T08:12:45;18.38;61.23
18361;SHT31;9308;48.550;9.108;2023-05-20T08:15:11;18.16;61.99
18361;SHT31;9308;48.550;9.108;2023-05-20T08:17:36;17.79;63.47
18361;SHT31;9308;48.550;9.108;2023-05-20T08:20:03;17.90;62.92
18361;SHT31;9308;48.550;9.108;2023-05-20T08:22:29;17.78;61.57
18361;SHT31;9308;48.550;9.108;2023-05-20T08:24:55;17.85;62.69
18361;SHT31;9308;48.550;9.108;2023-05-20T08:27:21;18.21;62.77
18361;SHT31;9308;48.550;9.108;2023-05-20T08:29:46;18.52;61.74
18361;SHT31;9308;48.550;9.108;2023-05-20T08:32:12;18.68;60.09
18361;SHT31;9308;48.550;9.108;2023-05-20T08:34:37;19.43;58.81
18361;SHT31;9308;48.550;9.108;2023-05-20T08:37:03;18.67;59.87
18361;SHT31;9308;48.550;9.108;2023-05-20T08:39:28;19.09;59.99
18361;SHT31;9308;48.550;9.108;2023-05-20T08:41:54;19.10;59.68
18361;SHT31;9308;48.550;9.108;2023-05-20T08:44:20;19.38;58.37
18361;SHT31;9308;48.550;9.108;2023-05-20T08:46:46;19.87;58.69
18361;SHT31;9308;48.550;9.108;2023-05-20T08:49:12;19.75;58.12
18361;SHT31;9308;48.550;9.108;2023-05-20T08:51:38;20.14;57.40
18361;SHT31;9308;48.550;9.108;2023-05-20T08:54:05;19.96;58.70
18361;SHT31;9308;48.550;9.108;2023-05-20T08:56:32;20.51;55.88
18361;SHT31;9308;48.550;9.108;2023-05-20T08:58:58;20.82;56.96
18361;SHT31;9308;48.550;9.108;2023-05-20T09:01:24;21.00;55.57
18361;SHT31;9308;48.550;9.108;2023-05-20T09:03:52;21.34;54.87
18361;SHT31;9308;48.550;9.108;2023-05-20T09:06:17;20.69;54.33
18361;SHT31;9308;48.550;9.108;2023-05-20T09:08:49;20.34;55.25
18361;SHT31;9308;48.550;9.108;2023-05-20T09:11:16;20.02;55.79
18361;SHT31;9308;48.550;9.108;2023-05-20T09:13:42;20.10;56.10
18361;SHT31;9308;48.550;9.108;2023-05-20T09:16:09;19.93;57.67
18361;SHT31;9308;48.550;9.108;2023-05-20T09:18:38;20.75;54.98
18361;SHT31;9308;48.550;9.108;2023-05-20T09:21:04;21.47;54.12
18361;SHT31;9308;48.550;9.108;2023-05-20T09:23:31;20.95;54.10
18361;SHT31;9308;48.550;9.108;2023-05-20T09:25:59;21.33;53.52
18361;SHT31;9308;48.550;9.108;2023-05-20T09:28:26;20.99;54.59
18361;SHT31;9308;48.550;9.108;2023-05-20T09:30:58;20.82;53.72
18361;SHT31;9308;48.550;9.108;2023-05-20T09:33:26;21.40;53.67
18361;SHT31;9308;48.550;9.108;2023-05-20T09:35:52;21.82;53.93
18361;SHT31;9308;48.550;9.108;2023-05-20T09:38:18;21.44;54.19
18361;SHT31;9308;48.550;9.108;2023-05-20T09:40:46;22.81;51.92
18361;SHT31;9308;48.550;9.108;2023-05-20T09:43:13;22.67;52.42
18361;SHT31;9308;48.550;9.108;2023-05-20T09:45:40;23.14;51.92
18361;SHT31;9308;48.550;9.108;2023-05-20T09:48:06;22.02;53.61
18361;SHT31;9308;48.550;9.108;2023-05-20T09:50:33;21.89;51.35
18361;SHT31;9308;48.550;9.108;2023-05-20T09:53:03;21.43;52.50
18361;SHT31;9308;48.550;9.108;2023-05-20T09:55:29;21.74;52.13
18361;SHT31;9308;48.550;9.108;2023-05-20T09:57:55;22.04;51.69
18361;SHT31;9308;48.550;9.108;2023-05-20T10:00:20;22.61;51.54
18361;SHT31;9308;48.550;9.108;2023-05-20T10:02:48;22.73;50.37
18361;SHT31;9308;48.550;9.108;2023-05-20T10:05:20;22.15;51.79
18361;SHT31;9308;48.550;9.108;2023-05-20T10:13:16;21.82;51.64
18361;SHT31;9308;48.550;9.108;2023-05-20T10:18:10;21.26;52.99
18361;SHT31;9308;48.550;9.108;2023-05-20T10:20:45;21.37;53.59
18361;SHT31;9308;48.550;9.108;2023-05-20T10:23:19;21.53;53.64
18361;SHT31;9308;48.550;9.108;2023-05-20T10:25:52;21.83;52.99
18361;SHT31;9308;48.550;9.108;2023-05-20T10:28:32;21.53;52.20
18361;SHT31;9308;48.550;9.108;2023-05-20T10:30:59;21.87;52.51
18361;SHT31;9308;48.550;9.108;2023-05-20T10:33:28;22.13;50.76
18361;SHT31;9308;48.550;9.108;2023-05-20T10:35:58;22.41;51.69
18361;SHT31;9308;48.550;9.108;2023-05-20T10:38:24;22.92;50.03
18361;SHT31;9308;48.550;9.108;2023-05-20T10:40:49;22.20;51.11
18361;SHT31;9308;48.550;9.108;2023-05-20T10:43:25;22.52;52.53
18361;SHT31;9308;48.550;9.108;2023-05-20T10:45:53;22.25;52.31
18361;SHT31;9308;48.550;9.108;2023-05-20T10:48:40;22.43;52.24
18361;SHT31;9308;48.550;9.108;2023-05-20T10:51:12;22.81;51.41
18361;SHT31;9308;48.550;9.108;2023-05-20T10:53:39;22.13;51.26
18361;SHT31;9308;48.550;9.108;2023-05-20T10:56:15;22.82;52.26
18361;SHT31;9308;48.550;9.108;2023-05-20T10:58:41;23.14;49.63
18361;SHT31;9308;48.550;9.108;2023-05-20T11:01:06;23.83;49.25
18361;SHT31;9308;48.550;9.108;2023-05-20T11:03:33;23.35;50.68
18361;SHT31;9308;48.550;9.108;2023-05-20T11:05:59;23.25;49.83
18361;SHT31;9308;48.550;9.108;2023-05-20T11:08:28;23.42;49.06
18361;SHT31;9308;48.550;9.108;2023-05-20T11:10:56;22.65;50.44
18361;SHT31;9308;48.550;9.108;2023-05-20T11:13:22;23.66;49.72
18361;SHT31;9308;48.550;9.108;2023-05-20T11:15:48;23.53;48.63
18361;SHT31;9308;48.550;9.108;2023-05-20T11:18:13;22.81;49.50
18361;SHT31;9308;48.550;9.108;2023-05-20T11:20:39;22.65;49.01
18361;SHT31;9308;48.550;9.108;2023-05-20T11:23:07;22.99;50.12
18361;SHT31;9308;48.550;9.108;2023-05-20T11:25:36;23.15;49.50
18361;SHT31;9308;48.550;9.108;2023-05-20T11:28:01;22.80;49.78
18361;SHT31;9308;48.550;9.108;2023-05-20T11:30:29;22.65;50.01
18361;SHT31;9308;48.550;9.108;2023-05-20T11:33:02;22.23;51.42
18361;SHT31;9308;48.550;9.108;2023-05-20T11:35:30;22.30;52.47
18361;SHT31;9308;48.550;9.108;2023-05-20T11:38:00;22.04;51.18
18361;SHT31;9308;48.550;9.108;2023-05-20T11:40:26;21.64;51.81
18361;SHT31;9308;48.550;9.108;2023-05-20T11:42:54;22.02;50.74
18361;SHT31;9308;48.550;9.108;2023-05-20T11:45:19;22.33;51.30
18361;SHT31;9308;48.550;9.108;2023-05-20T11:47:45;23.60;49.22
18361;SHT31;9308;48.550;9.108;2023-05-20T11:50:15;24.21;48.90
18361;SHT31;9308;48.550;9.108;2023-05-20T11:52:42;24.59;48.79
18361;SHT31;9308;48.550;9.108;2023-05-20T11:55:10;23.08;49.09
18361;SHT31;9308;48.550;9.108;2023-05-20T11:57:37;23.36;49.24
18361;SHT31;9308;48.550;9.108;2023-05-20T12:00:02;23.33;49.77
18361;SHT31;9308;48.550;9.108;2023-05-20T12:02:31;23.54;48.64
18361;SHT31;9308;48.550;9.108;2023-05-20T12:04:56;23.29;49.18
18361;SHT31;9308;48.550;9.108;2023-05-20T12:07:22;23.40;48.57
18361;SHT31;9308;48.550;9.108;2023-05-20T12:09:47;23.98;49.50
18361;SHT31;9308;48.550;9.108;2023-05-20T12:12:13;23.20;49.10
18361;SHT31;9308;48.550;9.108;2023-05-20T12:14:38;23.43;49.48
18361;SHT31;9308;48.550;9.108;2023-05-20T12:17:04;23.75;49.21
18361;SHT31;9308;48.550;9.108;2023-05-20T12:19:29;24.08;48.16
18361;SHT31;9308;48.550;9.108;2023-05-20T12:21:55;23.71;47.94
18361;SHT31;9308;48.550;9.108;2023-05-20T12:24:20;23.50;49.13
18361;SHT31;9308;48.550;9.108;2023-05-20T12:26:46;23.98;49.10
18361;SHT31;9308;48.550;9.108;2023-05-20T12:29:11;23.20;49.97
18361;SHT31;9308;48.550;9.108;2023-05-20T12:31:37;22.74;50.23
18361;SHT31;9308;48.550;9.108;2023-05-20T12:34:02;22.56;50.58
18361;SHT31;9308;48.550;9.108;2023-05-20T12:36:28;22.37;51.18
18361;SHT31;9308;48.550;9.108;2023-05-20T12:38:53;22.61;50.16
18361;SHT31;9308;48.550;9.108;2023-05-20T12:41:19;23.71;48.68
18361;SHT31;9308;48.550;9.108;2023-05-20T12:43:44;24.02;48.62
18361;SHT31;9308;48.550;9.108;2023-05-20T12:46:10;23.71;48.07
18361;SHT31;9308;48.550;9.108;2023-05-20T12:48:35;23.98;49.42
18361;SHT31;9308;48.550;9.108;2023-05-20T12:51:01;24.23;47.91
18361;SHT31;9308;48.550;9.108;2023-05-20T12:53:26;24.16;47.66
18361;SHT31;9308;48.550;9.108;2023-05-20T12:55:51;24.45;46.64
18361;SHT31;9308;48.550;9.108;2023-05-20T12:58:17;24.28;47.27
18361;SHT31;9308;48.550;9.108;2023-05-20T13:00:42;24.15;47.01
18361;SHT31;9308;48.550;9.108;2023-05-20T13:03:08;23.87;47.76
18361;SHT31;9308;48.550;9.108;2023-05-20T13:05:33;23.50;48.48
18361;SHT31;9308;48.550;9.108;2023-05-20T13:07:59;24.33;47.64
18361;SHT31;9308;48.550;9.108;2023-05-20T13:10:24;24.46;46.64
18361;SHT31;9308;48.550;9.108;2023-05-20T13:12:50;24.90;46.75
18361;SHT31;9308;48.550;9.108;2023-05-20T13:15:16;24.70;47.15
18361;SHT31;9308;48.550;9.108;2023-05-20T13:17:41;24.23;46.94
18361;SHT31;9308;48.550;9.108;2023-05-20T13:20:07;24.15;47.56
18361;SHT31;9308;48.550;9.108;2023-05-20T13:22:33;23.70;47.77
18361;SHT31;9308;48.550;9.108;2023-05-20T13:24:59;23.37;49.33
18361;SHT31;9308;48.550;9.108;2023-05-20T13:27:24;23.36;49.06
18361;SHT31;9308;48.550;9.108;2023-05-20T13:29:51;23.73;48.15
18361;SHT31;9308;48.550;9.108;2023-05-20T13:32:16;23.37;48.08
18361;SHT31;9308;48.550;9.108;2023-05-20T13:34:41;23.80;48.49
18361;SHT31;9308;48.550;9.108;2023-05-20T13:37:07;24.09;47.18
18361;SHT31;9308;48.550;9.108;2023-05-20T13:39:33;24.19;46.88
18361;SHT31;9308;48.550;9.108;2023-05-20T13:41:58;23.73;46.91
18361;SHT31;9308;48.550;9.108;2023-05-20T13:44:23;23.61;48.09
18361;SHT31;9308;48.550;9.108;2023-05-20T13:46:49;23.57;48.99
18361;SHT31;9308;48.550;9.108;2023-05-20T13:49:14;23.58;47.99
18361;SHT31;9308;48.550;9.108;2023-05-20T13:51:40;23.45;48.73
18361;SHT31;9308;48.550;9.108;2023-05-20T13:54:05;23.37;48.57
18361;SHT31;9308;48.550;9.108;2023-05-20T13:56:31;23.88;47.42
18361;SHT31;9308;48.550;9.108;2023-05-20T13:58:56;24.25;47.08
18361;SHT31;9308;48.550;9.108;2023-05-20T14:01:22;24.01;47.19
18361;SHT31;9308;48.550;9.108;2023-05-20T14:03:47;23.70;46.87
18361;SHT31;9308;48.550;9.108;2023-05-20T14:06:13;24.11;48.45
18361;SHT31;9308;48.550;9.108;2023-05-20T14:08:45;24.26;46.32
18361;SHT31;9308;48.550;9.108;2023-05-20T14:11:11;24.36;48.41
18361;SHT31;9308;48.550;9.108;2023-05-20T14:13:36;23.70;47.13
18361;SHT31;9308;48.550;9.108;2023-05-20T14:16:02;23.23;48.32
18361;SHT31;9308;48.550;9.108;2023-05-20T14:18:27;23.33;47.92
18361;SHT31;9308;48.550;9.108;2023-05-20T14:20:53;23.54;47.67
18361;SHT31;9308;48.550;9.108;2023-05-20T14:23:18;24.08;47.86
18361;SHT31;9308;48.550;9.108;2023-05-20T14:25:44;24.12;47.07
18361;SHT31;9308;48.550;9.108;2023-05-20T14:28:09;24.38;47.23
18361;SHT31;9308;48.550;9.108;2023-05-20T14:30:35;24.02;46.25
18361;SHT31;9308;48.550;9.108;2023-05-20T14:33:00;23.90;45.34
18361;SHT31;9308;48.550;9.108;2023-05-20T14:35:26;24.11;47.30
18361;SHT31;9308;48.550;9.108;2023-05-20T14:37:51;24.50;46.87
18361;SHT31;9308;48.550;9.108;2023-05-20T14:40:17;24.18;45.74
18361;SHT31;9308;48.550;9.108;2023-05-20T14:42:43;23.67;45.27
18361;SHT31;9308;48.550;9.108;2023-05-20T14:45:08;23.77;46.21
18361;SHT31;9308;48.550;9.108;2023-05-20T14:47:34;23.67;47.39
18361;SHT31;9308;48.550;9.108;2023-05-20T14:50:00;23.87;46.91
18361;SHT31;9308;48.550;9.108;2023-05-20T14:52:25;23.26;47.66
18361;SHT31;9308;48.550;9.108;2023-05-20T14:54:50;23.43;47.36
18361;SHT31;9308;48.550;9.108;2023-05-20T14:57:16;23.57;48.27
18361;SHT31;9308;48.550;9.108;2023-05-20T14:59:42;23.81;46.16
18361;SHT31;9308;48.550;9.108;2023-05-20T15:02:07;23.77;46.91
18361;SHT31;9308;48.550;9.108;2023-05-20T15:04:33;23.53;46.32
18361;SHT31;9308;48.550;9.108;2023-05-20T15:06:58;23.90;46.11
18361;SHT31;9308;48.550;9.108;2023-05-20T15:09:24;23.78;46.24
18361;SHT31;9308;48.550;9.108;2023-05-20T15:11:49;23.97;45.94
18361;SHT31;9308;48.550;9.108;2023-05-20T15:14:15;23.54;45.62
18361;SHT31;9308;48.550;9.108;2023-05-20T15:16:40;23.88;46.51
18361;SHT31;9308;48.550;9.108;2023-05-20T15:19:06;23.85;46.12
18361;SHT31;9308;48.550;9.108;2023-05-20T15:21:31;24.48;45.83
18361;SHT31;9308;48.550;9.108;2023-05-20T15:23:56;24.73;45.12
18361;SHT31;9308;48.550;9.108;2023-05-20T15:26:23;24.70;44.30
18361;SHT31;9308;48.550;9.108;2023-05-20T15:28:49;25.18;44.81
18361;SHT31;9308;48.550;9.108;2023-05-20T15:31:14;25.08;44.99
18361;SHT31;9308;48.550;9.108;2023-05-20T15:33:40;25.08;44.91
18361;SHT31;9308;48.550;9.108;2023-05-20T15:36:05;24.71;45.17
18361;SHT31;9308;48.550;9.108;2023-05-20T15:38:31;25.16;43.14
18361;SHT31;9308;48.550;9.108;2023-05-20T15:40:56;25.39;44.88
18361;SHT31;9308;48.550;9.108;2023-05-20T15:43:21;25.66;43.87
18361;SHT31;9308;48.550;9.108;2023-05-20T15:45:47;26.04;42.01
18361;SHT31;9308;48.550;9.108;2023-05-20T15:48:13;26.62;41.11